• Join FlightAware (Why Join?)
  • Login
  • US Flag 
01:57AM EDT


 

Airport Tracker/Info


-or-


 

Live Flight TrackerFlight Track Log ✈ EJA922 ✈ 29-Jun-2013 ✈ KRDU - KVNY

Flight Track Log - Related Links

Times and Time Zones

All times are in EDT time to prevent confusion due to time zone crossing. See the EJA922 flight status page for this flight to view local times or setup timezone preferences in your user account.

Time Position Orientation Groundspeed Altitude Reporting Facility
EDT Latitude Longitude Course Direction KTS MPH feet Rate Location/Type
12:24PM 35.8542 -78.8083 223° Southwest 187 215 1,200  Level Washington Center
12:24PM 35.8325 -78.8331 223° Southwest 192 221 2,700 2,940 Climbing Washington Center
12:26PM 35.8356 -78.9483 272° West 260 299 6,900 3,240 Climbing Washington Center
12:27PM 35.8372 -79.0408 271° West 274 315 10,600 2,940 Climbing Washington Center
12:28PM 35.8342 -79.1481 268° West 304 350 12,800 2,400 Climbing Washington Center
12:29PM 35.8314 -79.3617 269° West 338 389 17,300 2,400 Climbing Atlanta Center
12:30PM 35.8211 -79.4775 264° West 349 402 19,500 1,800 Climbing Atlanta Center
12:31PM 35.8086 -79.5911 262° West 349 402 21,000 1,200 Climbing Atlanta Center
12:32PM 35.7894 -79.6919 257° West 349 402 21,900 1,020 Climbing Atlanta Center
12:33PM 35.7922 -79.8300 271° West 361 415 23,100 1,080 Climbing Atlanta Center
12:34PM 35.8419 -79.9453 298° West 367 422 24,100 1,080 Climbing Atlanta Center
12:35PM 35.8939 -80.0656 298° West 382 440 25,300 1,200 Climbing Atlanta Center
12:36PM 35.9456 -80.1836 298° West 394 453 26,500 1,200 Climbing Atlanta Center
12:37PM 35.9950 -80.2967 298° West 399 459 27,700 1,020 Climbing Atlanta Center
12:38PM 36.0467 -80.4228 297° West 404 465 28,600 720 Climbing Atlanta Center
12:39PM 36.1025 -80.5489 299° West 410 472 29,200 780 Climbing Atlanta Center
12:40PM 36.1692 -80.7003 299° West 431 496 30,200 1,080 Climbing Atlanta Center
12:41PM 36.2250 -80.8292 298° West 440 506 31,400 1,320 Climbing Atlanta Center
12:42PM 36.2825 -80.9583 299° West 440 506 32,900 1,320 Climbing Atlanta Center
12:43PM 36.3378 -81.0928 297° West 433 498 34,100 960 Climbing Atlanta Center
12:44PM 36.3953 -81.2247 298° West 433 498 34,900 720 Climbing Atlanta Center
12:45PM 36.4503 -81.3569 297° West 433 498 35,600 840 Climbing Atlanta Center
12:48PM 36.5778 -81.6639 297° West 440 506 37,800 660 Climbing Indianapolis Center
12:49PM 36.6339 -81.7994 297° West 439 505 38,000 60 Climbing Indianapolis Center
12:50PM 36.7003 -81.9647 297° West 455 524 38,000  Level Indianapolis Center
12:51PM 36.7600 -82.1089 297° West 465 535 38,000  Level Indianapolis Center
12:52PM 36.8203 -82.2525 298° West 467 537 38,000  Level Indianapolis Center
12:53PM 36.8783 -82.3983 296° West 469 540 38,000  Level Indianapolis Center
12:54PM 36.9381 -82.5453 297° West 473 544 38,100 660 Climbing Indianapolis Center
12:55PM 36.9956 -82.6867 297° West 464 534 39,400 1,320 Climbing Indianapolis Center
12:56PM 37.0583 -82.8428 297° West 440 506 40,900 1,080 Climbing Indianapolis Center
12:57PM 37.1111 -82.9744 297° West 431 496 41,700 480 Climbing Indianapolis Center
12:58PM 37.1619 -83.1056 296° West 423 487 41,900 240 Climbing Indianapolis Center
12:59PM 37.2142 -83.2408 296° West 429 494 42,200 300 Climbing Indianapolis Center
01:00PM 37.2681 -83.3761 297° West 434 499 42,600 360 Climbing Indianapolis Center
01:01PM 37.3214 -83.5128 296° West 435 501 43,000 180 Climbing Indianapolis Center
01:02PM 37.3847 -83.6753 296° West 443 510 43,000  Level Indianapolis Center
01:03PM 37.4414 -83.8192 296° West 455 524 43,000  Level Indianapolis Center
01:04PM 37.4881 -83.9669 292° West 455 524 43,000  Level Indianapolis Center
01:05PM 37.5067 -84.1256 278° West 457 526 43,000  Level Indianapolis Center
01:06PM 37.5239 -84.2850 278° West 459 528 43,000  Level Indianapolis Center
01:07PM 37.5422 -84.4450 278° West 462 532 43,000  Level Indianapolis Center
01:08PM 37.5633 -84.6267 278° West 452 520 43,000  Level Indianapolis Center
01:09PM 37.5811 -84.7842 278° West 453 521 43,000  Level Indianapolis Center
01:10PM 37.5978 -84.9403 278° West 449 517 43,000  Level Indianapolis Center
01:11PM 37.6147 -85.0961 278° West 448 516 43,000  Level Indianapolis Center
01:12PM 37.6308 -85.2522 277° West 446 513 43,000  Level Indianapolis Center
01:14PM 37.6489 -85.4067 278° West 446 513 43,000  Level Indianapolis Center
01:15PM 37.6661 -85.5672 278° West 450 518 43,000  Level Indianapolis Center
01:16PM 37.6822 -85.7261 277° West 454 522 43,000  Level Indianapolis Center
01:17PM 37.6983 -85.8831 277° West 451 519 43,000  Level Indianapolis Center
01:18PM 37.7144 -86.0419 277° West 453 521 43,000  Level Indianapolis Center
01:19PM 37.7317 -86.2292 277° West 451 519 43,000  Level Indianapolis Center
01:20PM 37.7475 -86.3881 277° West 453 521 43,000  Level Indianapolis Center
01:21PM 37.7636 -86.5472 277° West 449 517 43,000  Level Indianapolis Center
01:22PM 37.7775 -86.7022 277° West 443 510 43,000  Level Indianapolis Center
01:23PM 37.7925 -86.8594 277° West 446 513 43,000  Level Indianapolis Center
01:24PM 37.8081 -87.0172 277° West 449 517 43,000  Level Indianapolis Center
01:25PM 37.8214 -87.1742 276° West 446 513 43,000  Level Indianapolis Center
01:26PM 37.8361 -87.3306 277° West 445 512 43,000  Level Indianapolis Center
01:27PM 37.8500 -87.4867 276° West 443 510 43,000  Level Indianapolis Center
01:28PM 37.8633 -87.6419 276° West 441 507 43,000  Level Indianapolis Center
01:29PM 37.8767 -87.7969 276° West 441 507 43,000  Level Indianapolis Center
01:30PM 37.8897 -87.9511 276° West 438 504 43,000  Level Indianapolis Center
01:31PM 37.9056 -88.1367 276° West 439 505 43,000  Level Indianapolis Center
01:32PM 37.9133 -88.2297 276° West 439 505 43,000  Level Kansas City Center
01:33PM 37.9244 -88.3842 275° West 438 504 43,000  Level Kansas City Center
01:34PM 37.9369 -88.5383 276° West 438 504 43,000  Level Kansas City Center
01:35PM 37.9508 -88.7039 276° West 440 506 43,000  Level Kansas City Center
01:36PM 37.9644 -88.8586 276° West 443 510 43,000  Level Kansas City Center
01:37PM 37.9761 -89.0142 275° West 443 510 43,000  Level Kansas City Center
01:38PM 37.9861 -89.1897 274° West 447 514 43,000  Level Kansas City Center
01:39PM 37.9978 -89.3456 275° West 445 512 43,000  Level Kansas City Center
01:40PM 38.0103 -89.5136 275° West 445 512 43,000  Level Kansas City Center
01:41PM 38.0208 -89.6711 275° West 448 516 43,000  Level Kansas City Center
01:42PM 38.0325 -89.8417 275° West 450 518 43,000  Level Kansas City Center
01:43PM 38.0431 -90.0008 275° West 452 520 43,000  Level Kansas City Center
01:44PM 38.0528 -90.1492 275° West 453 521 43,000  Level Kansas City Center
01:45PM 38.0628 -90.3078 275° West 451 519 43,000  Level Kansas City Center
01:46PM 38.0728 -90.4658 275° West 448 516 43,000  Level Kansas City Center
01:47PM 38.0817 -90.6242 274° West 448 516 43,000  Level Kansas City Center
01:48PM 38.0936 -90.8178 275° West 455 524 43,000  Level Kansas City Center
01:49PM 38.1033 -90.9792 274° West 456 525 43,000  Level Kansas City Center
01:50PM 38.1117 -91.1333 274° West 453 521 43,000  Level Kansas City Center
01:51PM 38.1206 -91.2939 274° West 455 524 43,000  Level Kansas City Center
01:52PM 38.1317 -91.4875 274° West 456 525 43,000  Level Kansas City Center
01:53PM 38.1411 -91.6486 274° West 457 526 43,000  Level Kansas City Center
01:54PM 38.1497 -91.8097 274° West 457 526 43,000  Level Kansas City Center
01:55PM 38.1578 -91.9703 274° West 457 526 43,000  Level Kansas City Center
01:56PM 38.1658 -92.1381 274° West 457 526 43,000  Level Kansas City Center
01:57PM 38.1731 -92.3000 273° West 460 529 43,000  Level Kansas City Center
01:58PM 38.1822 -92.4631 274° West 464 534 43,000  Level Kansas City Center
02:00PM 38.1878 -92.6253 273° West 462 532 43,000  Level Kansas City Center
02:01PM 38.1950 -92.8053 273° West 461 531 43,000  Level Kansas City Center
02:02PM 38.2028 -92.9667 274° West 458 527 43,000  Level Kansas City Center
02:03PM 38.2092 -93.1300 273° West 461 531 43,000  Level Kansas City Center
02:04PM 38.2156 -93.2925 273° West 461 531 43,000  Level Kansas City Center
02:05PM 38.2231 -93.4872 273° West 461 531 43,000  Level Kansas City Center
02:06PM 38.2283 -93.6506 272° West 462 532 43,000  Level Kansas City Center
02:07PM 38.2347 -93.8128 273° West 460 529 43,000  Level Kansas City Center
02:08PM 38.2408 -93.9764 273° West 462 532 43,000  Level Kansas City Center
02:09PM 38.2464 -94.1381 273° West 466 536 43,000  Level Kansas City Center
02:10PM 38.2508 -94.3236 272° West 468 539 43,000  Level Kansas City Center
02:11PM 38.2567 -94.4814 273° West 468 539 43,000  Level Kansas City Center
02:12PM 38.2608 -94.6675 272° West 468 539 43,100  Climbing Kansas City Center
02:13PM 38.2647 -94.8272 272° West 469 540 43,000 -60 Descending Kansas City Center
02:14PM 38.2686 -95.0142 272° West 470 541 43,000  Level Kansas City Center
02:15PM 38.2719 -95.1744 272° West 472 543 43,000  Level Kansas City Center
02:16PM 38.2764 -95.3625 272° West 473 544 43,000  Level Kansas City Center
02:17PM 38.2800 -95.5247 272° West 476 548 43,000  Level Kansas City Center
02:18PM 38.2825 -95.6847 271° West 471 542 43,000  Level Kansas City Center
02:19PM 38.2861 -95.8692 271° West 468 539 43,000  Level Kansas City Center
02:20PM 38.2883 -96.0267 271° West 466 536 43,000  Level Kansas City Center
02:21PM 38.2906 -96.2117 271° West 466 536 43,000  Level Kansas City Center
02:22PM 38.2931 -96.3686 271° West 464 534 43,000  Level Kansas City Center
02:23PM 38.2936 -96.5461 270° West 465 535 43,000  Level Kansas City Center
02:24PM 38.2958 -96.7108 271° West 466 536 43,000  Level Kansas City Center
02:25PM 38.2967 -96.8744 270° West 464 534 43,000  Level Kansas City Center
02:26PM 38.2978 -97.0378 271° West 464 534 43,000  Level Kansas City Center
02:27PM 38.2994 -97.2014 271° West 463 533 43,000  Level Kansas City Center
02:28PM 38.3006 -97.3636 271° West 462 532 43,000  Level Kansas City Center
02:29PM 38.3008 -97.5583 270° West 461 531 43,000  Level Kansas City Center
02:30PM 38.3006 -97.7206 270° West 462 532 43,000  Level Kansas City Center
02:31PM 38.3011 -97.8825 270° West 463 533 43,000  Level Kansas City Center
02:33PM 38.3008 -98.0456 270° West 465 535 43,000  Level Kansas City Center
02:34PM 38.3006 -98.2075 270° West 464 534 43,000  Level Kansas City Center
02:35PM 38.3000 -98.4050 270° West 468 539 43,000  Level Kansas City Center
02:36PM 38.2981 -98.5692 269° West 467 537 43,000  Level Kansas City Center
02:37PM 38.2975 -98.7361 270° West 471 542 43,000  Level Kansas City Center
02:38PM 38.2958 -98.9019 269° West 471 542 43,000  Level Kansas City Center
02:39PM 38.2944 -99.0675 269° West 470 541 43,000  Level Kansas City Center
02:40PM 38.2925 -99.2344 269° West 472 543 43,000  Level Kansas City Center
02:41PM 38.2903 -99.4031 269° West 475 547 43,000  Level Kansas City Center
02:42PM 38.2867 -99.5981 269° West 472 543 43,000  Level Kansas City Center
02:43PM 38.2842 -99.7586 269° West 474 545 43,000  Level Kansas City Center
02:44PM 38.2819 -99.9464 269° West 475 547 43,000  Level Kansas City Center
02:45PM 38.2753 -100.1858 268° West 477 549 43,000  Level Denver Center
02:46PM 38.2711 -100.3708 268° West 473 544 43,000  Level Denver Center
02:47PM 38.2669 -100.5297 268° West 472 543 43,000  Level Denver Center
02:48PM 38.2628 -100.7167 268° West 475 547 43,000  Level Denver Center
02:50PM 38.2603 -100.8783 269° West 479 551 43,000  Level Denver Center
02:51PM 38.2544 -101.0675 268° West 482 555 43,000  Level Denver Center
02:52PM 38.2489 -101.2275 268° West 476 548 43,000  Level Denver Center
02:53PM 38.2433 -101.4178 268° West 484 557 43,000  Level Denver Center
02:54PM 38.2386 -101.5794 268° West 482 555 43,000  Level Denver Center
02:55PM 38.2317 -101.7700 267° West 485 558 43,000  Level Denver Center
02:56PM 38.2261 -101.9331 268° West 485 558 43,000  Level Denver Center
02:57PM 38.2192 -102.1239 267° West 485 558 43,000  Level Denver Center
02:58PM 38.2128 -102.2875 267° West 487 560 43,000  Level Denver Center
02:59PM 38.2050 -102.4775 267° West 482 555 43,000  Level Denver Center
03:00PM 38.1981 -102.6417 267° West 486 559 43,000  Level Denver Center
03:01PM 38.1628 -102.8300 257° West 493 567 43,000  Level Denver Center
03:02PM 38.1194 -102.9914 251° West 502 578 43,000  Level Denver Center
03:03PM 38.0758 -103.1600 252° West 504 580 43,000  Level Denver Center
03:04PM 38.0269 -103.3469 252° West 501 577 43,000  Level Denver Center
03:05PM 37.9853 -103.5086 252° West 504 580 43,000  Level Denver Center
03:06PM 37.9353 -103.6964 251° West 506 582 43,000  Level Denver Center
03:07PM 37.8925 -103.8581 252° West 510 587 43,000  Level Denver Center
03:08PM 37.8431 -104.0442 251° West 505 581 43,000  Level Denver Center
03:09PM 37.7992 -104.2042 251° West 509 586 43,000  Level Denver Center
03:10PM 37.7492 -104.3903 251° West 506 582 43,000  Level Denver Center
03:11PM 37.7042 -104.5500 250° West 508 585 43,000  Level Denver Center
03:12PM 37.6533 -104.7375 251° West 507 583 43,000  Level Denver Center
03:13PM 37.6083 -104.8972 250° West 506 582 43,000  Level Denver Center
03:14PM 37.5553 -105.0828 250° West 505 581 43,000  Level Denver Center
03:15PM 37.5136 -105.2397 252° West 501 577 43,000  Level Denver Center
03:16PM 37.4603 -105.4253 250° West 504 580 43,000  Level Denver Center
03:17PM 37.4158 -105.5836 251° West 502 578 43,000  Level Denver Center
03:18PM 37.3625 -105.7689 250° West 504 580 43,000  Level Denver Center
03:19PM 37.3200 -105.9289 252° West 504 580 43,000  Level Denver Center
03:20PM 37.2722 -106.1164 252° West 506 582 43,000  Level Denver Center
03:22PM 37.2303 -106.2772 252° West 506 582 43,000  Level Denver Center
03:23PM 37.1956 -106.4692 257° West 504 580 43,000  Level Denver Center
03:24PM 37.1644 -106.6319 257° West 503 579 43,000  Level Denver Center
03:25PM 37.1336 -106.7939 257° West 501 577 43,000  Level Denver Center
03:26PM 37.0981 -106.9814 257° West 497 572 43,000  Level Denver Center
03:27PM 37.0667 -107.1433 256° West 500 575 43,000  Level Denver Center
03:28PM 37.0297 -107.3325 256° West 500 575 43,000  Level Denver Center
03:29PM 36.9978 -107.4947 256° West 502 578 43,000  Level Denver Center
03:30PM 36.9594 -107.6836 256° West 502 578 43,000  Level Denver Center
03:31PM 36.9283 -107.8422 256° West 494 568 43,000  Level Denver Center
03:32PM 36.8903 -108.0300 256° West 500 575 43,000  Level Denver Center
03:33PM 36.8583 -108.1892 256° West 497 572 43,000  Level Denver Center
03:34PM 36.8253 -108.3497 256° West 498 573 43,000  Level Denver Center
03:35PM 36.7867 -108.5381 256° West 503 579 43,000  Level Denver Center
03:36PM 36.7542 -108.6992 256° West 502 578 43,000  Level Denver Center
03:37PM 36.7136 -108.8856 255° West 502 578 43,000  Level Denver Center
03:38PM 36.6797 -109.0450 255° West 502 578 43,000  Level Denver Center
03:39PM 36.6400 -109.2308 255° West 499 574 43,000  Level Denver Center
03:40PM 36.6061 -109.3900 255° West 499 574 43,000  Level Denver Center
03:41PM 36.5650 -109.5753 255° West 500 575 43,000  Level Denver Center
03:42PM 36.5294 -109.7361 255° West 504 580 43,000  Level Denver Center
03:43PM 36.4889 -109.9236 255° West 506 582 43,000  Level Denver Center
03:44PM 36.4522 -110.0853 254° West 507 583 43,000  Level Denver Center
03:45PM 36.4125 -110.2636 255° West 506 582 43,000  Level Denver Center
03:46PM 36.3756 -110.4303 255° West 504 580 43,000  Level Denver Center
03:47PM 36.3356 -110.5975 254° West 503 579 43,000  Level Denver Center
03:48PM 36.2989 -110.7611 255° West 498 573 43,000  Level Denver Center
03:49PM 36.2611 -110.9256 254° West 496 571 43,000  Level Denver Center
03:50PM 36.2164 -111.1228 254° West 496 571 43,000  Level Denver Center
03:51PM 36.1772 -111.2875 254° West 498 573 43,000  Level Denver Center
03:52PM 36.1400 -111.4508 254° West 494 568 43,000  Level Denver Center
03:53PM 36.1003 -111.6164 254° West 499 574 43,000  Level Denver Center
03:54PM 36.0606 -111.7811 253° West 500 575 43,000  Level Denver Center
03:55PM 36.0203 -111.9458 253° West 500 575 43,000  Level Denver Center
03:57PM 35.9822 -112.1108 254° West 500 575 43,000  Level Denver Center
03:58PM 35.9411 -112.2733 253° West 497 572 43,000  Level Denver Center
03:59PM 35.8889 -112.4872 253° West 498 573 43,000  Level Los Angeles Center
04:00PM 35.8425 -112.6797 253° West 495 570 43,000  Level Los Angeles Center
04:01PM 35.8025 -112.8408 253° West 498 573 43,000  Level Los Angeles Center
04:02PM 35.7625 -113.0011 253° West 498 573 43,000  Level Los Angeles Center
04:03PM 35.7225 -113.1619 253° West 499 574 43,000  Level Los Angeles Center
04:04PM 35.6733 -113.3544 253° West 501 577 43,000  Level Los Angeles Center
04:05PM 35.6328 -113.5144 253° West 499 574 43,000  Level Los Angeles Center
04:06PM 35.5897 -113.6731 252° West 496 571 43,000 -240 Level Los Angeles Center
04:07PM 35.5464 -113.8331 252° West 499 574 42,600 -780 Descending Los Angeles Center
04:08PM 35.5036 -113.9908 252° West 495 570 41,500 -1,200 Descending Los Angeles Center
04:09PM 35.4514 -114.1825 252° West 501 577 40,200 -1,080 Descending Los Angeles Center
04:10PM 35.4131 -114.3236 252° West 499 574 39,300 -1,020 Descending Los Angeles Center
04:11PM 35.3581 -114.5211 251° West 509 586 38,100 -1,080 Descending Los Angeles Center
04:12PM 35.3103 -114.6858 250° West 512 589 37,100 -1,020 Descending Los Angeles Center
04:13PM 35.2650 -114.8478 251° West 505 581 36,000 -1,020 Descending Los Angeles Center
04:14PM 35.2194 -115.0103 251° West 504 580 35,000 -1,020 Descending Los Angeles Center
04:15PM 35.1731 -115.1772 251° West 508 585 34,000 -540 Descending Los Angeles Center
04:16PM 35.1258 -115.3428 251° West 517 595 34,000  Level Los Angeles Center
04:17PM 35.0761 -115.5075 250° West 519 597 34,000  Level Los Angeles Center
04:18PM 35.0203 -115.7075 251° West 519 597 34,000 -360 Level Los Angeles Center
04:20PM 34.9731 -115.8742 251° West 520 598 33,300 -1,680 Descending Los Angeles Center
04:21PM 34.9231 -116.0389 250° West 519 597 30,600 -2,760 Descending Los Angeles Center
04:22PM 34.8736 -116.2069 250° West 525 604 27,700 -2,700 Descending Los Angeles Center
04:23PM 34.8258 -116.3678 250° West 513 590 25,100 -2,400 Descending Los Angeles Center
04:24PM 34.7906 -116.5256 255° West 489 563 22,800 -1,800 Descending Los Angeles Center
04:25PM 34.7750 -116.6861 263° West 479 551 21,400 -1,380 Descending Los Angeles Center
04:26PM 34.7564 -116.8778 263° West 474 545 20,000 -720 Descending Los Angeles Center
04:27PM 34.7406 -117.0325 263° West 462 532 20,000  Level Los Angeles Center
04:28PM 34.7250 -117.1867 263° West 458 527 20,000  Level Los Angeles Center
04:29PM 34.7089 -117.3383 263° West 452 520 20,000 -60 Level Los Angeles Center
04:30PM 34.6928 -117.4900 263° West 450 518 19,900 -1,380 Descending Los Angeles Center
04:31PM 34.6764 -117.6364 262° West 437 503 17,200 -2,460 Descending Los Angeles Center
04:32PM 34.6614 -117.7836 263° West 439 505 14,900 -2,100 Descending Los Angeles Center
04:33PM 34.6467 -117.9233 263° West 418 481 13,000 -1,800 Descending Los Angeles Center
04:34PM 34.6297 -118.0725 262° West 368 423 11,200 -1,320 Descending Los Angeles Center
04:35PM 34.6108 -118.1608 255° West 307 353 10,300 -1,020 Descending Los Angeles Center
04:36PM 34.5892 -118.2564 255° West 295 339 9,100 -1,140 Descending Los Angeles Center
04:37PM 34.5642 -118.3700 255° West 291 335 8,000 -540 Descending Los Angeles Center
04:38PM 34.5319 -118.4536 245° Southwest 288 331 8,100 -480 Climbing Los Angeles Center
04:39PM 34.4761 -118.5181 224° Southwest 279 321 7,100 -1,260 Descending Los Angeles Center
04:40PM 34.3997 -118.5136 177° South 277 319 5,500 -1,320 Descending Los Angeles Center
04:41PM 34.3367 -118.5047 173° South 239 275 4,400 -1,140 Descending Los Angeles Center
04:42PM 34.2919 -118.4983 173° South 195 224 3,200 -1,380 Descending Los Angeles Center
04:43PM 34.2458 -118.4947 176° South 157 181 1,600 -1,200 Descending Los Angeles Center
04:44PM 34.2175 -118.4928 177° South 145 167 800 -780 Descending Los Angeles Center
04:46PM 34.2098 -118.4900 180° South  Level Estimated
04:53PM 34.2098 -118.4900 180° South  Level Estimated
04:54PM 34.2098 -118.4900 180° South  Level Estimated